Time;durP1;ratioP1;P1;durP2;ratioP2;P2;SDS_P1;SDS_P2;PMS_P1;PMS_P2;Temp;Humidity;BMP_temperature;BMP_pressure;BME280_temperature;BME280_humidity;BME280_pressure;Samples;Min_cycle;Max_cycle;Signal;HPM_P1;HPM_P2
2023/06/22 00:01:12;;;;;;;5.78;4.18;;;;;;;;;;5009810;28;91931;-79
2023/06/22 00:03:39;;;;;;;4.88;3.45;;;;;;;;;;5002049;28;96867;-79
2023/06/22 00:06:05;;;;;;;4.78;3.13;;;;;;;;;;4999218;28;92529;-79
2023/06/22 00:08:32;;;;;;;4.97;3.67;;;;;;;;;;4996435;28;91968;-79
2023/06/22 00:10:58;;;;;;;5.13;2.92;;;;;;;;;;4988537;28;92081;-79
2023/06/22 00:13:28;;;;;;;2.95;2.63;;;;;;;;;;5000821;28;93243;-79
2023/06/22 00:15:54;;;;;;;9.07;3.65;;;;;;;;;;5005153;28;92298;-79
2023/06/22 00:18:21;;;;;;;3.47;3.17;;;;;;;;;;5017591;28;92517;-79
2023/06/22 00:20:47;;;;;;;3.60;2.83;;;;;;;;;;5005506;28;91886;-79
2023/06/22 00:23:15;;;;;;;6.68;3.80;;;;;;;;;;5005088;28;92619;-79
2023/06/22 00:25:42;;;;;;;4.68;3.40;;;;;;;;;;5002883;28;92478;-79
2023/06/22 00:28:08;;;;;;;7.47;4.20;;;;;;;;;;4999489;28;94922;-79
2023/06/22 00:30:35;;;;;;;4.05;3.65;;;;;;;;;;4989681;28;94557;-79
2023/06/22 00:33:02;;;;;;;3.42;3.13;;;;;;;;;;5004302;28;92527;-79
2023/06/22 00:35:29;;;;;;;6.78;2.70;;;;;;;;;;5003088;28;93667;-79
2023/06/22 00:38:00;;;;;;;3.55;3.13;;;;;;;;;;5006670;28;92457;-79
2023/06/22 00:40:27;;;;;;;6.20;3.63;;;;;;;;;;4995007;28;95919;-79
2023/06/22 00:42:55;;;;;;;3.95;3.55;;;;;;;;;;4984141;28;94092;-77
2023/06/22 00:45:23;;;;;;;4.97;4.10;;;;;;;;;;4993626;28;92891;-78
2023/06/22 00:47:50;;;;;;;6.40;4.50;;;;;;;;;;5009983;28;93781;-77
2023/06/22 00:50:20;;;;;;;6.95;4.35;;;;;;;;;;5004282;28;94817;-80
2023/06/22 00:52:58;;;;;;;6.60;3.97;;;;;;;;;;5008475;28;94723;-77
2023/06/22 00:55:26;;;;;;;4.40;3.17;;;;;;;;;;5002875;28;94011;-77
2023/06/22 00:57:56;;;;;;;4.70;3.63;;;;;;;;;;4993567;28;94060;-80
2023/06/22 01:00:24;;;;;;;4.32;3.80;;;;;;;;;;5004421;28;94931;-77
2023/06/22 01:02:52;;;;;;;4.10;3.70;;;;;;;;;;4991131;28;92261;-77
2023/06/22 01:05:20;;;;;;;8.93;4.13;;;;;;;;;;4986162;28;93080;-77
2023/06/22 01:07:54;;;;;;;4.32;3.20;;;;;;;;;;5004770;28;92407;-80
2023/06/22 01:10:29;;;;;;;5.15;3.20;;;;;;;;;;5014323;28;94008;-80
2023/06/22 01:13:29;;;;;;;3.40;3.10;;;;;;;;;;5040078;28;92044;-80
2023/06/22 01:16:09;;;;;;;7.63;3.65;;;;;;;;;;4975592;28;92105;-78
2023/06/22 01:18:40;;;;;;;3.85;3.55;;;;;;;;;;4990666;28;95235;-78
2023/06/22 01:21:09;;;;;;;3.58;3.28;;;;;;;;;;4994378;28;92378;-78
2023/06/22 01:23:36;;;;;;;4.00;3.42;;;;;;;;;;5003273;28;92609;-78
2023/06/22 01:26:22;;;;;;;8.57;3.60;;;;;;;;;;5002575;28;93205;-78
2023/06/22 01:28:53;;;;;;;4.13;3.20;;;;;;;;;;4999975;28;92171;-78
2023/06/22 01:31:22;;;;;;;4.57;3.22;;;;;;;;;;5003260;28;94610;-78
2023/06/22 01:33:50;;;;;;;5.22;3.10;;;;;;;;;;5001698;28;92627;-78
2023/06/22 01:36:17;;;;;;;4.30;3.28;;;;;;;;;;4995452;28;92056;-78
2023/06/22 01:38:46;;;;;;;4.65;4.07;;;;;;;;;;4995254;28;92412;-78
2023/06/22 01:41:13;;;;;;;5.93;3.80;;;;;;;;;;4995362;28;93890;-78
2023/06/22 01:43:40;;;;;;;4.53;3.90;;;;;;;;;;5008904;28;94927;-78
2023/06/22 01:46:07;;;;;;;6.88;4.00;;;;;;;;;;5015518;28;92365;-78
2023/06/22 01:48:34;;;;;;;8.40;3.17;;;;;;;;;;5010123;28;92527;-78
2023/06/22 01:51:03;;;;;;;5.20;3.70;;;;;;;;;;5015049;28;92160;-78
2023/06/22 01:53:29;;;;;;;6.05;3.83;;;;;;;;;;4992327;28;92569;-78
2023/06/22 01:55:56;;;;;;;4.57;4.10;;;;;;;;;;4989154;28;92361;-78
2023/06/22 01:58:25;;;;;;;3.83;3.35;;;;;;;;;;5001976;28;93734;-78
2023/06/22 02:00:57;;;;;;;5.25;3.65;;;;;;;;;;5001664;28;94436;-78
2023/06/22 02:03:30;;;;;;;9.05;4.20;;;;;;;;;;4997056;28;92384;-78
2023/06/22 02:06:10;;;;;;;4.45;3.60;;;;;;;;;;4999982;28;94989;-78
2023/06/22 02:08:39;;;;;;;5.78;4.47;;;;;;;;;;4987411;28;94810;-78
2023/06/22 02:11:07;;;;;;;4.18;3.33;;;;;;;;;;5003225;28;92494;-78
2023/06/22 02:13:36;;;;;;;4.78;3.25;;;;;;;;;;5004154;28;95796;-78
2023/06/22 02:16:03;;;;;;;4.80;3.78;;;;;;;;;;5002255;28;94151;-78
2023/06/22 02:18:30;;;;;;;4.43;3.70;;;;;;;;;;5014577;28;93042;-78
2023/06/22 02:20:57;;;;;;;4.53;4.10;;;;;;;;;;5010617;28;94950;-78
2023/06/22 02:23:23;;;;;;;5.45;4.32;;;;;;;;;;5008820;28;94991;-78
2023/06/22 02:25:50;;;;;;;5.60;4.25;;;;;;;;;;5003624;28;94023;-78
2023/06/22 02:28:16;;;;;;;3.80;3.33;;;;;;;;;;5004777;28;92411;-78
2023/06/22 02:30:44;;;;;;;4.30;3.90;;;;;;;;;;4987311;28;92137;-78
2023/06/22 02:33:10;;;;;;;7.35;4.22;;;;;;;;;;4998118;28;95009;-78
2023/06/22 02:35:37;;;;;;;4.43;4.00;;;;;;;;;;4989113;28;95659;-78
2023/06/22 02:38:04;;;;;;;6.90;4.15;;;;;;;;;;5007405;28;94118;-78
2023/06/22 02:40:31;;;;;;;7.97;4.82;;;;;;;;;;4990668;28;94779;-78
2023/06/22 02:43:01;;;;;;;7.47;3.55;;;;;;;;;;5001328;28;92910;-78
2023/06/22 02:45:28;;;;;;;5.07;4.05;;;;;;;;;;5007609;28;92740;-78
2023/06/22 02:47:55;;;;;;;8.40;5.40;;;;;;;;;;5004257;28;92464;-78
2023/06/22 02:50:23;;;;;;;5.20;4.72;;;;;;;;;;5024430;28;91786;-78
2023/06/22 02:52:50;;;;;;;5.18;3.95;;;;;;;;;;4997228;28;95603;-78
2023/06/22 02:55:16;;;;;;;5.32;3.80;;;;;;;;;;5004646;28;92575;-78
2023/06/22 02:57:52;;;;;;;4.30;3.13;;;;;;;;;;4988924;28;94448;-78
2023/06/22 03:00:20;;;;;;;6.57;4.72;;;;;;;;;;5008319;28;92845;-78
2023/06/22 03:02:48;;;;;;;3.65;3.35;;;;;;;;;;5007162;28;93788;-78
2023/06/22 03:05:17;;;;;;;6.95;4.55;;;;;;;;;;4982140;28;93561;-78
2023/06/22 03:07:45;;;;;;;5.63;4.28;;;;;;;;;;5003581;28;94189;-78
2023/06/22 03:10:12;;;;;;;4.75;4.00;;;;;;;;;;5006773;28;94369;-78
2023/06/22 03:12:40;;;;;;;7.50;4.28;;;;;;;;;;5001084;28;94966;-78
2023/06/22 03:15:07;;;;;;;3.92;3.58;;;;;;;;;;5013592;28;94284;-78
2023/06/22 03:17:34;;;;;;;8.38;4.10;;;;;;;;;;4996277;28;92465;-79
2023/06/22 03:20:08;;;;;;;6.25;4.22;;;;;;;;;;4998097;28;92438;-78
2023/06/22 03:22:35;;;;;;;4.40;4.00;;;;;;;;;;4994085;28;95292;-78
2023/06/22 03:25:02;;;;;;;7.65;4.88;;;;;;;;;;5013253;28;93948;-79
2023/06/22 03:27:29;;;;;;;4.15;3.75;;;;;;;;;;4996753;28;94800;-78
2023/06/22 03:29:56;;;;;;;7.15;4.40;;;;;;;;;;4992617;28;92332;-78
2023/06/22 03:32:24;;;;;;;5.90;4.65;;;;;;;;;;4984878;28;94454;-79
2023/06/22 03:34:50;;;;;;;7.70;5.15;;;;;;;;;;5002737;28;92679;-78
2023/06/22 03:37:17;;;;;;;5.75;5.07;;;;;;;;;;4995131;28;92510;-78
2023/06/22 03:39:44;;;;;;;7.50;5.05;;;;;;;;;;5000545;28;96001;-78
2023/06/22 03:42:12;;;;;;;7.85;5.70;;;;;;;;;;5001846;28;93371;-78
2023/06/22 03:44:39;;;;;;;9.50;6.13;;;;;;;;;;4990608;28;94742;-79
2023/06/22 03:47:07;;;;;;;6.95;6.00;;;;;;;;;;4999734;28;94740;-78
2023/06/22 03:49:35;;;;;;;12.05;6.18;;;;;;;;;;4973857;28;94167;-79
2023/06/22 03:52:02;;;;;;;8.75;6.45;;;;;;;;;;5002328;28;92536;-78
2023/06/22 03:54:29;;;;;;;7.90;6.55;;;;;;;;;;4992079;28;92140;-79
2023/06/22 03:56:56;;;;;;;12.30;5.55;;;;;;;;;;5003810;28;92553;-78
2023/06/22 03:59:23;;;;;;;5.47;4.80;;;;;;;;;;5000536;28;92789;-78
2023/06/22 04:01:50;;;;;;;5.05;4.43;;;;;;;;;;4993081;28;93084;-79
2023/06/22 04:04:17;;;;;;;6.57;4.80;;;;;;;;;;5006575;28;92193;-79
2023/06/22 04:06:44;;;;;;;7.22;5.25;;;;;;;;;;5004649;28;92486;-78
2023/06/22 04:09:11;;;;;;;6.05;5.32;;;;;;;;;;5011166;28;92145;-78
2023/06/22 04:11:38;;;;;;;7.47;6.05;;;;;;;;;;5014547;28;94841;-79
2023/06/22 04:14:05;;;;;;;8.48;6.10;;;;;;;;;;5009791;28;93815;-78
2023/06/22 04:16:31;;;;;;;9.27;7.25;;;;;;;;;;5016035;28;93635;-79
2023/06/22 04:18:58;;;;;;;16.85;8.07;;;;;;;;;;4997481;28;92460;-80
2023/06/22 04:21:25;;;;;;;9.38;7.22;;;;;;;;;;5015387;28;92638;-79
2023/06/22 04:23:51;;;;;;;9.43;7.18;;;;;;;;;;5016946;28;92381;-80
2023/06/22 04:26:20;;;;;;;10.43;8.98;;;;;;;;;;5019859;28;92852;-79
2023/06/22 04:28:51;;;;;;;12.68;8.88;;;;;;;;;;5003221;28;93685;-79
2023/06/22 04:31:19;;;;;;;13.90;8.47;;;;;;;;;;5003686;28;94614;-79
2023/06/22 04:33:45;;;;;;;10.25;8.27;;;;;;;;;;5003312;28;92416;-79
2023/06/22 04:36:15;;;;;;;11.27;7.47;;;;;;;;;;5002886;28;94834;-79
2023/06/22 04:38:42;;;;;;;13.00;7.75;;;;;;;;;;5017114;28;92193;-79
2023/06/22 04:41:14;;;;;;;15.00;8.70;;;;;;;;;;5009610;28;95655;-79
2023/06/22 04:43:40;;;;;;;11.30;8.05;;;;;;;;;;5009729;28;92884;-79
2023/06/22 04:46:07;;;;;;;12.30;9.38;;;;;;;;;;5020248;28;92123;-78
2023/06/22 04:48:33;;;;;;;11.18;8.48;;;;;;;;;;5012279;28;92065;-78
2023/06/22 04:51:03;;;;;;;11.65;8.65;;;;;;;;;;5020765;28;92918;-79
2023/06/22 04:53:31;;;;;;;16.17;10.50;;;;;;;;;;5013135;28;92072;-79
2023/06/22 04:55:57;;;;;;;14.68;11.40;;;;;;;;;;5006920;28;92977;-79
2023/06/22 04:58:28;;;;;;;15.85;12.00;;;;;;;;;;5013681;28;93181;-79
2023/06/22 05:00:56;;;;;;;22.63;14.73;;;;;;;;;;5022155;28;94888;-79
2023/06/22 05:03:25;;;;;;;19.83;13.32;;;;;;;;;;5011854;28;92448;-79
2023/06/22 05:05:53;;;;;;;25.83;14.80;;;;;;;;;;5001510;28;93065;-78
2023/06/22 05:08:20;;;;;;;25.00;14.60;;;;;;;;;;5005376;28;92158;-78
2023/06/22 05:10:46;;;;;;;20.15;13.20;;;;;;;;;;5006392;28;93376;-79
2023/06/22 05:13:30;;;;;;;21.63;13.90;;;;;;;;;;5004635;28;92421;-79
2023/06/22 05:16:01;;;;;;;20.50;14.10;;;;;;;;;;5005135;28;92248;-79
2023/06/22 05:18:29;;;;;;;25.23;16.00;;;;;;;;;;5012178;28;92364;-79
2023/06/22 05:20:56;;;;;;;22.63;16.48;;;;;;;;;;5012061;28;92353;-79
2023/06/22 05:23:23;;;;;;;34.45;18.45;;;;;;;;;;5005623;28;92226;-79
2023/06/22 05:25:49;;;;;;;27.80;19.08;;;;;;;;;;4996651;28;94646;-79
2023/06/22 05:28:16;;;;;;;25.88;19.33;;;;;;;;;;4999474;28;94004;-78
2023/06/22 05:30:42;;;;;;;33.95;21.27;;;;;;;;;;5012409;28;92226;-78
2023/06/22 05:33:09;;;;;;;42.63;25.85;;;;;;;;;;5004437;28;92261;-78
2023/06/22 05:35:35;;;;;;;35.60;23.73;;;;;;;;;;5006822;28;92908;-79
2023/06/22 05:38:02;;;;;;;37.10;23.40;;;;;;;;;;5006260;28;95896;-79
2023/06/22 05:40:29;;;;;;;31.92;20.00;;;;;;;;;;5002341;28;92205;-79
2023/06/22 05:42:56;;;;;;;31.63;20.85;;;;;;;;;;4992488;28;91593;-80
2023/06/22 05:45:22;;;;;;;32.17;20.25;;;;;;;;;;5018634;28;94663;-79
2023/06/22 05:47:49;;;;;;;23.88;18.30;;;;;;;;;;4992837;28;92892;-79
2023/06/22 05:50:16;;;;;;;27.80;19.20;;;;;;;;;;4986453;28;95131;-79
2023/06/22 05:52:43;;;;;;;35.63;21.95;;;;;;;;;;4988590;28;92468;-79
2023/06/22 05:55:10;;;;;;;29.17;21.13;;;;;;;;;;4989512;28;94766;-79
2023/06/22 05:57:36;;;;;;;29.65;21.38;;;;;;;;;;4989462;28;93740;-79
2023/06/22 06:00:06;;;;;;;34.13;22.52;;;;;;;;;;4991736;28;93366;-79
2023/06/22 06:02:33;;;;;;;34.15;22.52;;;;;;;;;;4993093;28;92995;-79
2023/06/22 06:05:02;;;;;;;37.08;22.98;;;;;;;;;;4991700;28;92425;-79
2023/06/22 06:07:29;;;;;;;32.65;22.55;;;;;;;;;;4995022;28;92456;-79
2023/06/22 06:09:56;;;;;;;33.35;22.92;;;;;;;;;;5003187;28;93235;-79
2023/06/22 06:12:23;;;;;;;33.00;21.90;;;;;;;;;;5012410;28;92541;-79
2023/06/22 06:14:51;;;;;;;31.42;21.65;;;;;;;;;;5009972;28;94898;-79
2023/06/22 06:17:17;;;;;;;36.72;23.30;;;;;;;;;;5001977;28;92434;-80
2023/06/22 06:19:44;;;;;;;27.90;21.17;;;;;;;;;;5013406;28;94894;-79
2023/06/22 06:22:10;;;;;;;31.58;21.70;;;;;;;;;;4991134;28;93114;-79
2023/06/22 06:24:38;;;;;;;31.35;20.83;;;;;;;;;;4997330;28;93082;-79
2023/06/22 06:27:04;;;;;;;30.50;20.13;;;;;;;;;;5015833;28;92536;-79
2023/06/22 06:29:34;;;;;;;28.63;19.58;;;;;;;;;;4998179;28;92501;-79
2023/06/22 06:32:00;;;;;;;30.50;19.90;;;;;;;;;;5019374;28;94104;-80
2023/06/22 06:34:27;;;;;;;31.30;20.27;;;;;;;;;;5023355;28;94732;-81
2023/06/22 06:36:53;;;;;;;28.95;18.73;;;;;;;;;;5014423;28;93983;-80
2023/06/22 06:39:20;;;;;;;26.90;20.38;;;;;;;;;;5020950;28;94888;-80
2023/06/22 06:41:47;;;;;;;22.52;17.30;;;;;;;;;;5020280;28;96479;-80
2023/06/22 06:44:14;;;;;;;24.25;18.02;;;;;;;;;;5020246;28;94404;-79
2023/06/22 06:46:42;;;;;;;32.03;20.08;;;;;;;;;;4989041;28;92822;-80
2023/06/22 06:49:08;;;;;;;24.70;19.13;;;;;;;;;;5002283;28;92491;-79
2023/06/22 06:51:35;;;;;;;27.85;19.58;;;;;;;;;;5006261;28;92412;-79
2023/06/22 06:54:03;;;;;;;29.17;19.40;;;;;;;;;;5007916;28;93046;-79
2023/06/22 06:56:30;;;;;;;21.20;17.33;;;;;;;;;;5005408;28;91777;-79
2023/06/22 06:58:58;;;;;;;27.25;17.85;;;;;;;;;;4998962;28;92512;-79
2023/06/22 07:01:25;;;;;;;25.42;19.55;;;;;;;;;;5006368;28;92250;-79
2023/06/22 07:03:51;;;;;;;27.98;19.20;;;;;;;;;;5005034;28;96972;-80
2023/06/22 07:06:18;;;;;;;30.30;20.00;;;;;;;;;;5011638;28;92993;-80
2023/06/22 07:08:45;;;;;;;26.95;17.98;;;;;;;;;;5009977;28;92780;-80
2023/06/22 07:11:11;;;;;;;28.23;18.75;;;;;;;;;;5006620;28;92305;-80
2023/06/22 07:13:38;;;;;;;27.92;18.48;;;;;;;;;;5010791;28;92156;-80
2023/06/22 07:16:05;;;;;;;21.52;16.25;;;;;;;;;;5007417;28;92457;-80
2023/06/22 07:18:31;;;;;;;21.67;15.85;;;;;;;;;;5004041;28;92496;-80
2023/06/22 07:20:58;;;;;;;24.90;16.90;;;;;;;;;;5012915;28;94632;-80
2023/06/22 07:23:24;;;;;;;22.58;16.48;;;;;;;;;;5006457;28;92567;-80
2023/06/22 07:25:51;;;;;;;20.30;14.73;;;;;;;;;;4984769;28;95304;-80
2023/06/22 07:28:19;;;;;;;20.80;14.80;;;;;;;;;;5002468;28;94875;-80
2023/06/22 07:30:45;;;;;;;18.75;14.45;;;;;;;;;;5007885;28;93474;-80
2023/06/22 07:33:12;;;;;;;18.67;14.18;;;;;;;;;;5006042;28;95021;-80
2023/06/22 07:35:39;;;;;;;18.23;13.43;;;;;;;;;;5007863;28;93486;-81
2023/06/22 07:38:06;;;;;;;25.02;14.55;;;;;;;;;;5007210;28;92498;-80
2023/06/22 07:40:32;;;;;;;19.25;12.70;;;;;;;;;;5008186;28;92440;-80
2023/06/22 07:43:00;;;;;;;15.07;12.38;;;;;;;;;;4993027;28;92104;-81
2023/06/22 07:45:26;;;;;;;19.23;12.93;;;;;;;;;;4998532;28;91573;-80
2023/06/22 07:47:53;;;;;;;21.55;12.25;;;;;;;;;;5009548;28;93091;-80
2023/06/22 07:50:20;;;;;;;21.80;12.52;;;;;;;;;;4995440;28;92042;-80
2023/06/22 07:52:47;;;;;;;17.08;11.75;;;;;;;;;;4997205;28;94746;-80
2023/06/22 07:55:14;;;;;;;22.73;13.18;;;;;;;;;;4989374;28;94355;-80
2023/06/22 07:57:41;;;;;;;20.35;12.60;;;;;;;;;;5012423;28;92317;-80
2023/06/22 08:00:15;;;;;;;18.75;13.05;;;;;;;;;;5001316;28;92416;-80
2023/06/22 08:02:44;;;;;;;17.80;12.05;;;;;;;;;;4999159;28;94221;-80
2023/06/22 08:05:13;;;;;;;18.83;13.48;;;;;;;;;;4984399;28;93018;-80
2023/06/22 08:07:59;;;;;;;13.90;10.75;;;;;;;;;;5006931;28;93403;-80
2023/06/22 08:10:26;;;;;;;21.20;13.27;;;;;;;;;;4994565;28;93546;-81
2023/06/22 08:12:52;;;;;;;18.30;13.10;;;;;;;;;;5020017;28;92450;-79
2023/06/22 08:15:19;;;;;;;19.33;10.98;;;;;;;;;;5007309;28;92367;-79
2023/06/22 08:17:46;;;;;;;15.10;9.88;;;;;;;;;;4986129;28;94903;-79
2023/06/22 08:20:12;;;;;;;19.85;11.43;;;;;;;;;;5006513;28;94356;-79
2023/06/22 08:22:40;;;;;;;18.55;11.48;;;;;;;;;;5003883;28;92504;-79
2023/06/22 08:25:07;;;;;;;13.70;9.68;;;;;;;;;;4995054;28;92250;-80
2023/06/22 08:27:33;;;;;;;18.20;10.90;;;;;;;;;;4979733;28;94960;-80
2023/06/22 08:30:00;;;;;;;14.10;11.30;;;;;;;;;;5006778;28;92403;-80
2023/06/22 08:32:27;;;;;;;15.20;10.35;;;;;;;;;;4977200;28;93335;-80
2023/06/22 08:34:54;;;;;;;12.32;9.98;;;;;;;;;;4996916;28;92357;-83
2023/06/22 08:37:23;;;;;;;17.13;10.10;;;;;;;;;;4996963;28;92981;-84
2023/06/22 08:39:50;;;;;;;17.88;10.07;;;;;;;;;;5004823;28;93320;-84
2023/06/22 08:42:16;;;;;;;14.48;8.77;;;;;;;;;;5007015;28;94802;-84
2023/06/22 08:44:43;;;;;;;16.30;8.65;;;;;;;;;;5010161;28;94176;-84
2023/06/22 08:47:09;;;;;;;12.38;8.95;;;;;;;;;;5008851;28;92460;-84
2023/06/22 08:49:37;;;;;;;14.15;7.45;;;;;;;;;;5008392;28;92395;-84
2023/06/22 08:52:04;;;;;;;12.80;7.55;;;;;;;;;;5011558;28;93884;-84
2023/06/22 08:54:34;;;;;;;8.90;7.03;;;;;;;;;;5014582;28;92364;-84
2023/06/22 08:57:01;;;;;;;10.65;7.60;;;;;;;;;;5017110;28;92719;-84
2023/06/22 08:59:28;;;;;;;13.18;8.25;;;;;;;;;;5018917;28;91617;-84
2023/06/22 09:01:55;;;;;;;11.38;7.57;;;;;;;;;;5006747;28;92312;-84
2023/06/22 09:04:24;;;;;;;11.75;7.18;;;;;;;;;;5005940;28;94149;-84
2023/06/22 09:06:52;;;;;;;10.63;7.05;;;;;;;;;;4997537;28;94892;-84
2023/06/22 09:09:19;;;;;;;9.75;6.88;;;;;;;;;;4998232;28;94979;-84
2023/06/22 09:11:45;;;;;;;15.80;6.72;;;;;;;;;;4999959;28;93020;-84
2023/06/22 09:14:12;;;;;;;8.05;5.85;;;;;;;;;;4999335;28;94433;-85
2023/06/22 09:16:39;;;;;;;7.80;5.65;;;;;;;;;;4996082;28;94757;-84
2023/06/22 09:19:05;;;;;;;5.07;4.60;;;;;;;;;;5009636;28;94223;-84
2023/06/22 09:21:32;;;;;;;7.72;4.70;;;;;;;;;;5007894;28;92460;-84
2023/06/22 09:24:00;;;;;;;8.23;4.28;;;;;;;;;;4995605;28;92199;-84
2023/06/22 09:26:27;;;;;;;6.70;3.95;;;;;;;;;;5011950;28;93854;-84
2023/06/22 09:28:53;;;;;;;6.65;4.00;;;;;;;;;;4982192;28;92115;-84
2023/06/22 09:31:26;;;;;;;5.30;4.13;;;;;;;;;;4994925;28;95684;-84
2023/06/22 09:33:53;;;;;;;7.05;4.40;;;;;;;;;;4994843;28;96011;-84
2023/06/22 09:36:21;;;;;;;9.40;5.13;;;;;;;;;;4995038;28;93302;-85
2023/06/22 09:38:48;;;;;;;8.88;4.78;;;;;;;;;;4997359;28;92557;-84
2023/06/22 09:41:15;;;;;;;8.40;5.97;;;;;;;;;;4998805;28;92903;-84
2023/06/22 09:43:42;;;;;;;5.15;4.47;;;;;;;;;;4998133;28;95070;-84
2023/06/22 09:46:09;;;;;;;5.13;4.63;;;;;;;;;;4996538;28;94389;-85
2023/06/22 09:48:36;;;;;;;13.30;4.75;;;;;;;;;;4996045;28;92053;-85
2023/06/22 09:51:06;;;;;;;7.57;4.37;;;;;;;;;;4980838;28;93993;-85
2023/06/22 09:53:34;;;;;;;6.60;4.78;;;;;;;;;;4993860;28;94413;-84
2023/06/22 09:56:01;;;;;;;9.70;4.32;;;;;;;;;;4992927;28;94800;-85
2023/06/22 09:58:28;;;;;;;4.72;4.10;;;;;;;;;;4990640;28;94548;-84
2023/06/22 10:00:55;;;;;;;10.95;4.72;;;;;;;;;;4992354;28;92744;-85
2023/06/22 10:03:23;;;;;;;6.63;5.53;;;;;;;;;;4990661;28;93447;-84
2023/06/22 10:05:50;;;;;;;8.02;5.75;;;;;;;;;;5000485;28;93215;-84
2023/06/22 10:08:16;;;;;;;7.60;4.28;;;;;;;;;;5000513;28;92346;-85
2023/06/22 10:10:43;;;;;;;11.70;5.20;;;;;;;;;;4997952;28;92439;-85
2023/06/22 10:13:10;;;;;;;11.82;5.07;;;;;;;;;;4983645;28;95554;-85
2023/06/22 10:15:38;;;;;;;8.38;5.55;;;;;;;;;;4993933;28;94779;-84
2023/06/22 10:18:04;;;;;;;5.75;4.85;;;;;;;;;;5000037;28;92484;-85
2023/06/22 10:20:31;;;;;;;6.50;4.43;;;;;;;;;;4998964;28;94824;-85
2023/06/22 10:22:58;;;;;;;6.18;4.78;;;;;;;;;;4998011;28;96004;-84
2023/06/22 10:25:26;;;;;;;8.52;3.97;;;;;;;;;;5000352;28;92070;-85
2023/06/22 10:27:53;;;;;;;6.05;3.90;;;;;;;;;;4987944;28;92420;-85
2023/06/22 10:30:21;;;;;;;5.07;3.90;;;;;;;;;;4990575;28;92624;-84
2023/06/22 10:32:48;;;;;;;4.65;3.90;;;;;;;;;;4995789;28;92570;-84
2023/06/22 10:35:15;;;;;;;4.47;3.63;;;;;;;;;;4997080;28;93470;-84
2023/06/22 10:37:46;;;;;;;3.95;3.53;;;;;;;;;;4997116;28;95300;-84
2023/06/22 10:40:13;;;;;;;6.57;4.30;;;;;;;;;;5009808;28;93397;-84
2023/06/22 10:42:43;;;;;;;4.57;4.18;;;;;;;;;;4996958;28;93514;-85
2023/06/22 10:45:10;;;;;;;5.70;4.30;;;;;;;;;;5009078;28;94950;-84
2023/06/22 10:47:38;;;;;;;7.47;4.25;;;;;;;;;;5011683;28;94078;-85
2023/06/22 10:50:05;;;;;;;5.20;4.32;;;;;;;;;;5001333;28;92477;-84
2023/06/22 10:52:32;;;;;;;8.85;4.78;;;;;;;;;;5002266;28;92477;-84
2023/06/22 10:54:59;;;;;;;7.55;4.18;;;;;;;;;;4985925;28;93252;-84
2023/06/22 10:57:26;;;;;;;5.00;4.53;;;;;;;;;;4992554;28;92464;-84
2023/06/22 10:59:52;;;;;;;5.25;4.28;;;;;;;;;;5002379;28;95648;-84
2023/06/22 11:02:19;;;;;;;10.48;4.38;;;;;;;;;;5000140;28;92021;-84
2023/06/22 11:04:47;;;;;;;11.65;4.82;;;;;;;;;;5001056;28;92479;-84
2023/06/22 11:07:15;;;;;;;5.70;4.00;;;;;;;;;;4979224;28;92521;-84
2023/06/22 11:09:42;;;;;;;7.60;4.60;;;;;;;;;;5001034;28;94879;-84
2023/06/22 11:12:09;;;;;;;6.18;4.78;;;;;;;;;;4995562;28;93925;-85
2023/06/22 11:14:36;;;;;;;9.75;4.40;;;;;;;;;;5008139;28;92710;-84
2023/06/22 11:17:02;;;;;;;5.53;4.93;;;;;;;;;;5013399;28;92667;-84
2023/06/22 11:19:30;;;;;;;7.95;4.78;;;;;;;;;;4996200;28;92815;-84
2023/06/22 11:21:57;;;;;;;7.55;5.28;;;;;;;;;;5010270;28;93293;-84
2023/06/22 11:24:23;;;;;;;9.55;5.15;;;;;;;;;;5008174;28;95024;-85
2023/06/22 11:26:50;;;;;;;6.13;4.60;;;;;;;;;;5004485;28;92577;-84
2023/06/22 11:29:16;;;;;;;5.70;4.28;;;;;;;;;;4994969;28;92513;-84
2023/06/22 11:32:02;;;;;;;7.57;4.88;;;;;;;;;;4997844;28;93316;-83
2023/06/22 11:34:29;;;;;;;8.25;5.18;;;;;;;;;;4992464;28;96366;-83
2023/06/22 11:36:56;;;;;;;7.10;5.18;;;;;;;;;;4979973;28;92590;-83
2023/06/22 11:39:22;;;;;;;8.23;5.28;;;;;;;;;;4977348;28;92295;-83
2023/06/22 11:42:07;;;;;;;10.07;6.05;;;;;;;;;;4975812;28;95653;-83
2023/06/22 11:44:33;;;;;;;11.55;6.93;;;;;;;;;;4987457;28;92411;-83
2023/06/22 11:47:00;;;;;;;15.27;6.75;;;;;;;;;;5009544;28;92576;-83
2023/06/22 11:49:27;;;;;;;12.35;7.35;;;;;;;;;;5004003;28;94228;-83
2023/06/22 11:51:54;;;;;;;10.25;6.47;;;;;;;;;;4984674;28;92660;-83
2023/06/22 11:54:20;;;;;;;15.55;7.47;;;;;;;;;;4981346;28;93927;-82
2023/06/22 11:56:47;;;;;;;9.30;7.18;;;;;;;;;;4993858;28;92543;-83
2023/06/22 11:59:13;;;;;;;13.73;6.88;;;;;;;;;;4991966;28;94944;-83
2023/06/22 12:01:40;;;;;;;13.45;7.05;;;;;;;;;;4990146;28;94905;-83
2023/06/22 12:04:07;;;;;;;8.57;6.43;;;;;;;;;;5005590;28;94779;-83
2023/06/22 12:06:41;;;;;;;11.82;7.22;;;;;;;;;;4995042;28;92458;-83
2023/06/22 12:09:08;;;;;;;8.90;6.75;;;;;;;;;;4992385;28;94398;-83
2023/06/22 12:11:34;;;;;;;20.27;7.53;;;;;;;;;;4992109;28;92201;-83
2023/06/22 12:14:02;;;;;;;9.52;7.32;;;;;;;;;;4993209;28;92279;-83
2023/06/22 12:16:28;;;;;;;12.27;7.95;;;;;;;;;;5000649;28;92051;-83
2023/06/22 12:18:55;;;;;;;9.85;7.13;;;;;;;;;;4995179;28;92465;-83
2023/06/22 12:21:22;;;;;;;15.88;7.47;;;;;;;;;;4995341;28;92776;-83
2023/06/22 12:23:48;;;;;;;14.25;9.48;;;;;;;;;;4991517;28;94905;-83
2023/06/22 12:26:15;;;;;;;15.77;8.00;;;;;;;;;;4988239;28;94724;-82
2023/06/22 12:28:41;;;;;;;18.15;8.48;;;;;;;;;;4993068;28;94027;-83
2023/06/22 12:31:08;;;;;;;15.23;8.98;;;;;;;;;;4993336;28;92288;-83
2023/06/22 12:33:34;;;;;;;16.83;9.55;;;;;;;;;;4995735;28;95657;-83
2023/06/22 12:36:01;;;;;;;15.82;10.30;;;;;;;;;;5011846;28;92253;-82
2023/06/22 12:38:27;;;;;;;15.23;10.07;;;;;;;;;;5007689;28;92411;-82
2023/06/22 12:40:54;;;;;;;15.07;10.80;;;;;;;;;;4999370;28;92457;-82
2023/06/22 12:43:21;;;;;;;12.55;10.13;;;;;;;;;;4993910;28;92480;-82
2023/06/22 12:45:47;;;;;;;15.85;10.20;;;;;;;;;;4997027;28;94661;-82
2023/06/22 12:48:14;;;;;;;13.48;9.98;;;;;;;;;;5009070;28;94769;-82
2023/06/22 12:50:40;;;;;;;17.13;9.43;;;;;;;;;;5018286;28;92418;-82
2023/06/22 12:53:07;;;;;;;11.45;9.27;;;;;;;;;;5001144;28;92359;-82
2023/06/22 12:55:34;;;;;;;11.02;7.72;;;;;;;;;;5001636;28;92216;-82
2023/06/22 12:58:00;;;;;;;11.43;8.77;;;;;;;;;;5020453;28;93374;-83
2023/06/22 13:00:27;;;;;;;11.48;8.38;;;;;;;;;;5001276;28;94475;-83
2023/06/22 13:02:54;;;;;;;9.98;8.65;;;;;;;;;;4992650;28;94453;-82
2023/06/22 13:05:22;;;;;;;14.32;8.93;;;;;;;;;;5020161;28;92840;-82
2023/06/22 13:07:49;;;;;;;11.20;8.23;;;;;;;;;;5005680;28;93069;-82
2023/06/22 13:10:15;;;;;;;13.43;9.57;;;;;;;;;;5005596;28;94435;-82
2023/06/22 13:12:42;;;;;;;12.45;9.55;;;;;;;;;;4987423;28;94511;-82
2023/06/22 13:15:09;;;;;;;13.55;9.38;;;;;;;;;;5007639;28;92976;-82
2023/06/22 13:17:35;;;;;;;21.75;10.07;;;;;;;;;;5002089;28;92354;-83
2023/06/22 13:20:04;;;;;;;16.70;10.77;;;;;;;;;;5001957;28;92934;-82
2023/06/22 13:22:32;;;;;;;14.15;10.52;;;;;;;;;;5000149;28;96127;-82
2023/06/22 13:24:59;;;;;;;16.08;10.93;;;;;;;;;;5008992;28;92409;-82
2023/06/22 13:27:28;;;;;;;12.20;8.95;;;;;;;;;;4992199;28;94000;-82
2023/06/22 13:29:54;;;;;;;14.18;8.68;;;;;;;;;;5002742;28;93131;-82
2023/06/22 13:32:21;;;;;;;15.32;8.30;;;;;;;;;;5000660;28;92357;-82
2023/06/22 13:34:48;;;;;;;11.77;9.10;;;;;;;;;;5002860;28;94627;-84
2023/06/22 13:37:14;;;;;;;14.02;9.48;;;;;;;;;;5001542;28;94201;-81
2023/06/22 13:39:41;;;;;;;9.20;7.97;;;;;;;;;;5003375;28;94087;-84
2023/06/22 13:42:08;;;;;;;12.77;9.63;;;;;;;;;;5006471;28;92032;-82
2023/06/22 13:44:34;;;;;;;18.92;10.65;;;;;;;;;;4995214;28;92491;-82
2023/06/22 13:47:01;;;;;;;14.95;10.23;;;;;;;;;;5000582;28;92384;-81
2023/06/22 13:49:28;;;;;;;14.18;10.38;;;;;;;;;;4985965;28;94698;-82
2023/06/22 13:51:54;;;;;;;12.98;10.13;;;;;;;;;;4998448;28;92312;-82
2023/06/22 13:54:21;;;;;;;15.15;9.55;;;;;;;;;;4994966;28;92961;-81
2023/06/22 13:56:51;;;;;;;14.55;9.65;;;;;;;;;;4992351;28;92066;-82
2023/06/22 13:59:17;;;;;;;19.08;8.75;;;;;;;;;;4989451;28;92484;-82
2023/06/22 14:01:44;;;;;;;13.40;8.98;;;;;;;;;;4998293;28;97089;-82
2023/06/22 14:04:10;;;;;;;15.35;9.98;;;;;;;;;;5005572;28;92869;-81
2023/06/22 14:06:38;;;;;;;12.77;9.90;;;;;;;;;;4999569;28;92321;-81
2023/06/22 14:09:04;;;;;;;17.48;9.65;;;;;;;;;;4989868;28;95284;-81
2023/06/22 14:11:31;;;;;;;13.68;9.73;;;;;;;;;;5008766;28;94084;-81
2023/06/22 14:13:58;;;;;;;12.95;8.90;;;;;;;;;;5010150;28;94275;-83
2023/06/22 14:16:26;;;;;;;16.63;9.85;;;;;;;;;;5002505;28;94931;-84
2023/06/22 14:18:52;;;;;;;19.77;10.27;;;;;;;;;;5003756;28;94430;-84
2023/06/22 14:21:22;;;;;;;14.10;10.88;;;;;;;;;;5008473;28;92671;-82
2023/06/22 14:23:49;;;;;;;16.33;10.82;;;;;;;;;;5007217;28;93805;-84
2023/06/22 14:26:19;;;;;;;14.52;10.05;;;;;;;;;;5002702;28;94864;-83
2023/06/22 14:28:48;;;;;;;14.13;10.20;;;;;;;;;;4990701;28;95244;-84
2023/06/22 14:31:15;;;;;;;14.68;10.95;;;;;;;;;;5017229;28;94894;-82
2023/06/22 14:33:48;;;;;;;13.07;9.75;;;;;;;;;;5005622;28;92417;-82